PWSweather.com
Personal Weather Stations
Station Observations
KMIEASTT1
Tawas Bay, East Tawas, MI 48730

Tawas BayEast Tawas, MI 48730

Lat: 44.28, Lon: -83.48

Elevation: 600

Station Type: Davis VantagePro

http://www.tawasbayweather.com

High Low Average
Temperature 33.5°F0.8°C 27.7°F-2.4°C 30.5°F-0.8°C
Dew Point 31.4°F-0.3°C 16.9°F-8.4°C 24.7°F-4.1°C
Winds 13.0 mph 20.9 kmh Calm Calm 3.0 mph W4.8 kmh W
Wind Gusts 15.0 mph24.1 kmh -- 6.0 mph9.7 kmh
Humidity 95% 57% 80%
Pressure 30.22 in1023.4 mb 29.92 in1013.2 mb -
Precipitation 0.00 in0.0 mm - -
Hour Temp Dew Point Humidity Winds Wind Gusts Pressure Precip Precip Rate Daily Precip Total
12:02 AM 32.6°F0.3°C 29.7°F-1.3°C 89% 3.0 mph SSW4.8 kmh SSW 5.0 mph8.0 kmh 30.03 in1016.9 mb 0.00 in0.0 mm 0.00 in/hr0.0 mm/hr 0.00 in0.0 mm
12:16 AM 32.5°F0.3°C 29.9°F-1.2°C 90% 5.0 mph SSW8.0 kmh SSW 5.0 mph8.0 kmh 30.02 in1016.6 mb 0.00 in0.0 mm 0.00 in/hr0.0 mm/hr 0.00 in0.0 mm
12:31 AM 32.2°F0.1°C 30.1°F-1.1°C 92% 4.0 mph S6.4 kmh S 5.0 mph8.0 kmh 30.01 in1016.3 mb 0.00 in0.0 mm 0.00 in/hr0.0 mm/hr 0.00 in0.0 mm
12:46 AM 32.0°F0.0°C 30.2°F-1.0°C 93% 3.0 mph S4.8 kmh S 5.0 mph8.0 kmh 30.00 in1015.9 mb 0.00 in0.0 mm 0.00 in/hr0.0 mm/hr 0.00 in0.0 mm
01:00 AM 31.8°F-0.1°C 30.3°F-0.9°C 94% 2.0 mph S3.2 kmh S 3.0 mph4.8 kmh 30.00 in1015.9 mb 0.00 in0.0 mm 0.00 in/hr0.0 mm/hr 0.00 in0.0 mm
01:16 AM 31.7°F-0.2°C 30.2°F-1.0°C 94% 1.0 mph S1.6 kmh S 2.0 mph3.2 kmh 29.99 in1015.6 mb 0.00 in0.0 mm 0.00 in/hr0.0 mm/hr 0.00 in0.0 mm
01:31 AM 31.7°F-0.2°C 30.4°F-0.9°C 95% Calm Calm -- 29.99 in1015.6 mb 0.01 in0.3 mm 0.04 in/hr1.0 mm/hr 0.01 in0.3 mm
01:46 AM 31.8°F-0.1°C 30.5°F-0.8°C 95% Calm Calm -- 29.98 in1015.2 mb 0.02 in0.5 mm 0.04 in/hr1.0 mm/hr 0.02 in0.5 mm
02:01 AM 32.4°F0.2°C 31.1°F-0.5°C 95% Calm Calm -- 29.97 in1014.9 mb 0.03 in0.8 mm 0.01 in/hr0.3 mm/hr 0.03 in0.8 mm
02:16 AM 32.9°F0.5°C 31.4°F-0.3°C 94% Calm Calm -- 29.97 in1014.9 mb 0.03 in0.8 mm 0.00 in/hr0.0 mm/hr 0.03 in0.8 mm
02:31 AM 32.7°F0.4°C 30.9°F-0.6°C 93% Calm Calm -- 29.96 in1014.6 mb 0.03 in0.8 mm 0.00 in/hr0.0 mm/hr 0.03 in0.8 mm
02:46 AM 32.5°F0.3°C 31.0°F-0.6°C 94% Calm Calm -- 29.95 in1014.2 mb 0.03 in0.8 mm 0.00 in/hr0.0 mm/hr 0.03 in0.8 mm
03:00 AM 32.6°F0.3°C 31.1°F-0.5°C 94% Calm Calm -- 29.95 in1014.2 mb 0.03 in0.8 mm 0.00 in/hr0.0 mm/hr 0.03 in0.8 mm
03:16 AM 33.0°F0.6°C 31.2°F-0.4°C 93% Calm Calm -- 29.95 in1014.2 mb 0.02 in0.5 mm 0.00 in/hr0.0 mm/hr 0.03 in0.8 mm
03:31 AM 33.2°F0.7°C 31.4°F-0.3°C 93% Calm Calm -- 29.95 in1014.2 mb 0.00 in0.0 mm 0.00 in/hr0.0 mm/hr 0.03 in0.8 mm
03:46 AM 33.4°F0.8°C 31.3°F-0.4°C 92% Calm Calm -- 29.94 in1013.9 mb 0.00 in0.0 mm 0.00 in/hr0.0 mm/hr 0.03 in0.8 mm
04:03 AM 33.5°F0.8°C 31.4°F-0.3°C 92% Calm Calm -- 29.94 in1013.9 mb 0.00 in0.0 mm 0.00 in/hr0.0 mm/hr 0.03 in0.8 mm
04:15 AM 33.5°F0.8°C 31.4°F-0.3°C 92% Calm Calm -- 29.93 in1013.5 mb 0.00 in0.0 mm 0.00 in/hr0.0 mm/hr 0.03 in0.8 mm
04:31 AM 33.5°F0.8°C 31.2°F-0.4°C 91% Calm Calm -- 29.93 in1013.5 mb 0.01 in0.3 mm 0.04 in/hr1.0 mm/hr 0.04 in1.0 mm
04:46 AM 32.6°F0.3°C 30.5°F-0.8°C 92% Calm Calm -- 29.92 in1013.2 mb 0.02 in0.5 mm 0.04 in/hr1.0 mm/hr 0.05 in1.3 mm
05:02 AM 31.9°F-0.1°C 30.1°F-1.1°C 93% Calm Calm -- 29.93 in1013.5 mb 0.02 in0.5 mm 0.00 in/hr0.0 mm/hr 0.05 in1.3 mm
05:16 AM 31.5°F-0.3°C 30.0°F-1.1°C 94% Calm Calm -- 29.93 in1013.5 mb 0.04 in1.0 mm 0.09 in/hr2.3 mm/hr 0.07 in1.8 mm
05:30 AM 31.3°F-0.4°C 29.8°F-1.2°C 94% Calm Calm -- 29.93 in1013.5 mb 0.05 in1.3 mm 0.04 in/hr1.0 mm/hr 0.08 in2.0 mm
05:45 AM 31.4°F-0.3°C 30.1°F-1.1°C 95% Calm Calm -- 29.92 in1013.2 mb 0.05 in1.3 mm 0.00 in/hr0.0 mm/hr 0.08 in2.0 mm
06:01 AM 31.5°F-0.3°C 30.0°F-1.1°C 94% Calm Calm -- 29.93 in1013.5 mb 0.05 in1.3 mm 0.00 in/hr0.0 mm/hr 0.08 in2.0 mm
06:16 AM 31.2°F-0.4°C 29.7°F-1.3°C 94% Calm Calm -- 29.93 in1013.5 mb 0.05 in1.3 mm 0.00 in/hr0.0 mm/hr 0.08 in2.0 mm
06:30 AM 31.1°F-0.5°C 29.8°F-1.2°C 95% Calm Calm -- 29.93 in1013.5 mb 0.06 in1.5 mm 0.04 in/hr1.0 mm/hr 0.09 in2.3 mm
06:46 AM 31.2°F-0.4°C 29.9°F-1.2°C 95% Calm Calm -- 29.92 in1013.2 mb 0.04 in1.0 mm 0.00 in/hr0.0 mm/hr 0.09 in2.3 mm
07:00 AM 30.8°F-0.7°C 29.5°F-1.4°C 95% Calm Calm -- 29.92 in1013.2 mb 0.04 in1.0 mm 0.00 in/hr0.0 mm/hr 0.09 in2.3 mm
07:16 AM 30.4°F-0.9°C 28.9°F-1.7°C 94% Calm Calm -- 29.92 in1013.2 mb 0.02 in0.5 mm 0.00 in/hr0.0 mm/hr 0.09 in2.3 mm
07:31 AM 30.0°F-1.1°C 28.5°F-1.9°C 94% Calm Calm -- 29.93 in1013.5 mb 0.01 in0.3 mm 0.00 in/hr0.0 mm/hr 0.09 in2.3 mm
07:46 AM 29.7°F-1.3°C 28.2°F-2.1°C 94% Calm Calm -- 29.93 in1013.5 mb 0.01 in0.3 mm 0.00 in/hr0.0 mm/hr 0.09 in2.3 mm
08:02 AM 29.7°F-1.3°C 28.5°F-1.9°C 95% Calm Calm -- 29.93 in1013.5 mb 0.00 in0.0 mm 0.00 in/hr0.0 mm/hr 0.09 in2.3 mm
08:16 AM 29.7°F-1.3°C 28.2°F-2.1°C 94% Calm Calm -- 29.93 in1013.5 mb 0.00 in0.0 mm 0.00 in/hr0.0 mm/hr 0.09 in2.3 mm
08:31 AM 29.7°F-1.3°C 28.2°F-2.1°C 94% Calm Calm 5.0 mph8.0 kmh 29.93 in1013.5 mb 0.00 in0.0 mm 0.00 in/hr0.0 mm/hr 0.09 in2.3 mm
08:46 AM 29.6°F-1.3°C 27.8°F-2.3°C 93% 3.0 mph N4.8 kmh N 6.0 mph9.7 kmh 29.94 in1013.9 mb 0.00 in0.0 mm 0.00 in/hr0.0 mm/hr 0.09 in2.3 mm
09:02 AM 28.8°F-1.8°C 27.0°F-2.8°C 93% 1.0 mph NNW1.6 kmh NNW 5.0 mph8.0 kmh 29.95 in1014.2 mb 0.00 in0.0 mm 0.00 in/hr0.0 mm/hr 0.09 in2.3 mm
09:16 AM 28.6°F-1.9°C 26.6°F-3.0°C 92% 2.0 mph NNW3.2 kmh NNW 6.0 mph9.7 kmh 29.97 in1014.9 mb 0.00 in0.0 mm 0.00 in/hr0.0 mm/hr 0.09 in2.3 mm
09:31 AM 28.3°F-2.1°C 26.0°F-3.3°C 91% 4.0 mph N6.4 kmh N 9.0 mph14.5 kmh 29.98 in1015.2 mb 0.01 in0.3 mm 0.04 in/hr1.0 mm/hr 0.10 in2.5 mm
09:46 AM 27.9°F-2.3°C 25.9°F-3.4°C 92% 2.0 mph NNW3.2 kmh NNW 8.0 mph12.9 kmh 29.99 in1015.6 mb 0.01 in0.3 mm 0.00 in/hr0.0 mm/hr 0.10 in2.5 mm
10:01 AM 27.7°F-2.4°C 25.2°F-3.8°C 90% 10.0 mph NNW16.1 kmh NNW 10.0 mph16.1 kmh 30.00 in1015.9 mb 0.01 in0.3 mm 0.00 in/hr0.0 mm/hr 0.10 in2.5 mm
10:17 AM 27.7°F-2.4°C 24.9°F-3.9°C 89% 9.0 mph NW14.5 kmh NW 10.0 mph16.1 kmh 30.00 in1015.9 mb 0.01 in0.3 mm 0.00 in/hr0.0 mm/hr 0.10 in2.5 mm
10:31 AM 27.8°F-2.3°C 24.7°F-4.1°C 88% 7.0 mph NW11.3 kmh NW 9.0 mph14.5 kmh 30.01 in1016.3 mb 0.00 in0.0 mm 0.00 in/hr0.0 mm/hr 0.10 in2.5 mm
10:46 AM 28.2°F-2.1°C 24.8°F-4.0°C 87% 6.0 mph NNW9.7 kmh NNW 9.0 mph14.5 kmh 30.02 in1016.6 mb 0.00 in0.0 mm 0.00 in/hr0.0 mm/hr 0.10 in2.5 mm
11:02 AM 28.3°F-2.1°C 24.4°F-4.2°C 85% 5.0 mph NW8.0 kmh NW 13.0 mph20.9 kmh 30.02 in1016.6 mb 0.00 in0.0 mm 0.00 in/hr0.0 mm/hr 0.10 in2.5 mm
11:16 AM 28.7°F-1.8°C 24.2°F-4.3°C 83% 5.0 mph NNW8.0 kmh NNW 13.0 mph20.9 kmh 30.03 in1016.9 mb 0.00 in0.0 mm 0.00 in/hr0.0 mm/hr 0.10 in2.5 mm
11:31 AM 28.8°F-1.8°C 23.7°F-4.6°C 81% 8.0 mph NNW12.9 kmh NNW 14.0 mph22.5 kmh 30.04 in1017.3 mb 0.00 in0.0 mm 0.00 in/hr0.0 mm/hr 0.10 in2.5 mm
11:45 AM 29.8°F-1.2°C 23.8°F-4.6°C 78% 6.0 mph NW9.7 kmh NW 11.0 mph17.7 kmh 30.05 in1017.6 mb 0.00 in0.0 mm 0.00 in/hr0.0 mm/hr 0.10 in2.5 mm
12:01 PM 30.8°F-0.7°C 23.5°F-4.7°C 74% 7.0 mph NW11.3 kmh NW 10.0 mph16.1 kmh 30.06 in1017.9 mb 0.06 in1.5 mm 0.08 in/hr2.0 mm/hr 0.16 in4.1 mm
12:16 PM 30.5°F-0.8°C 22.2°F-5.4°C 71% 10.0 mph NW16.1 kmh NW 13.0 mph20.9 kmh 30.07 in1018.3 mb 0.06 in1.5 mm 0.00 in/hr0.0 mm/hr 0.16 in4.1 mm
12:31 PM 29.7°F-1.3°C 22.1°F-5.5°C 73% 11.0 mph NW17.7 kmh NW 15.0 mph24.1 kmh 30.07 in1018.3 mb 0.06 in1.5 mm 0.00 in/hr0.0 mm/hr 0.16 in4.1 mm
12:47 PM 30.5°F-0.8°C 21.9°F-5.6°C 70% 6.0 mph NW9.7 kmh NW 11.0 mph17.7 kmh 30.08 in1018.6 mb 0.06 in1.5 mm 0.00 in/hr0.0 mm/hr 0.16 in4.1 mm
01:02 PM 31.4°F-0.3°C 20.7°F-6.3°C 64% 3.0 mph N4.8 kmh N 12.0 mph19.3 kmh 30.09 in1019.0 mb 0.00 in0.0 mm 0.00 in/hr0.0 mm/hr 0.16 in4.1 mm
01:16 PM 31.3°F-0.4°C 20.6°F-6.3°C 64% 4.0 mph NW6.4 kmh NW 9.0 mph14.5 kmh 30.09 in1019.0 mb 0.00 in0.0 mm 0.00 in/hr0.0 mm/hr 0.16 in4.1 mm
01:31 PM 31.4°F-0.3°C 20.3°F-6.5°C 63% 5.0 mph N8.0 kmh N 10.0 mph16.1 kmh 30.10 in1019.3 mb 0.00 in0.0 mm 0.00 in/hr0.0 mm/hr 0.16 in4.1 mm
01:46 PM 31.0°F-0.6°C 20.3°F-6.5°C 64% 9.0 mph NNW14.5 kmh NNW 12.0 mph19.3 kmh 30.10 in1019.3 mb 0.00 in0.0 mm 0.00 in/hr0.0 mm/hr 0.16 in4.1 mm
02:02 PM 31.0°F-0.6°C 19.5°F-6.9°C 62% 9.0 mph NW14.5 kmh NW 12.0 mph19.3 kmh 30.10 in1019.3 mb 0.00 in0.0 mm 0.00 in/hr0.0 mm/hr 0.16 in4.1 mm
02:16 PM 30.4°F-0.9°C 18.6°F-7.4°C 61% 5.0 mph NW8.0 kmh NW 13.0 mph20.9 kmh 30.11 in1019.6 mb 0.00 in0.0 mm 0.00 in/hr0.0 mm/hr 0.16 in4.1 mm
02:31 PM 30.6°F-0.8°C 18.8°F-7.3°C 61% 11.0 mph WNW17.7 kmh WNW 14.0 mph22.5 kmh 30.11 in1019.6 mb 0.00 in0.0 mm 0.00 in/hr0.0 mm/hr 0.16 in4.1 mm
02:46 PM 30.5°F-0.8°C 19.8°F-6.8°C 64% 6.0 mph NNW9.7 kmh NNW 7.0 mph11.3 kmh 30.11 in1019.6 mb 0.00 in0.0 mm 0.00 in/hr0.0 mm/hr 0.16 in4.1 mm
03:03 PM 30.4°F-0.9°C 19.3°F-7.1°C 63% 5.0 mph NW8.0 kmh NW 13.0 mph20.9 kmh 30.11 in1019.6 mb 0.00 in0.0 mm 0.00 in/hr0.0 mm/hr 0.16 in4.1 mm
03:15 PM 30.2°F-1.0°C 18.0°F-7.8°C 60% 3.0 mph NW4.8 kmh NW 9.0 mph14.5 kmh 30.12 in1020.0 mb 0.00 in0.0 mm 0.00 in/hr0.0 mm/hr 0.16 in4.1 mm
03:31 PM 30.4°F-0.9°C 18.6°F-7.4°C 61% 7.0 mph NW11.3 kmh NW 13.0 mph20.9 kmh 30.12 in1020.0 mb 0.00 in0.0 mm 0.00 in/hr0.0 mm/hr 0.16 in4.1 mm
03:46 PM 30.6°F-0.8°C 19.1°F-7.2°C 62% 4.0 mph NW6.4 kmh NW 6.0 mph9.7 kmh 30.12 in1020.0 mb 0.00 in0.0 mm 0.00 in/hr0.0 mm/hr 0.16 in4.1 mm
04:02 PM 30.6°F-0.8°C 18.4°F-7.6°C 60% 4.0 mph NW6.4 kmh NW 8.0 mph12.9 kmh 30.13 in1020.3 mb 0.00 in0.0 mm 0.00 in/hr0.0 mm/hr 0.16 in4.1 mm
04:16 PM 30.6°F-0.8°C 18.4°F-7.6°C 60% 3.0 mph NW4.8 kmh NW 7.0 mph11.3 kmh 30.14 in1020.7 mb 0.00 in0.0 mm 0.00 in/hr0.0 mm/hr 0.16 in4.1 mm
04:31 PM 30.9°F-0.6°C 17.9°F-7.8°C 58% 11.0 mph WNW17.7 kmh WNW 11.0 mph17.7 kmh 30.15 in1021.0 mb 0.00 in0.0 mm 0.00 in/hr0.0 mm/hr 0.16 in4.1 mm
04:46 PM 30.8°F-0.7°C 18.2°F-7.7°C 59% 4.0 mph N6.4 kmh N 7.0 mph11.3 kmh 30.15 in1021.0 mb 0.00 in0.0 mm 0.00 in/hr0.0 mm/hr 0.16 in4.1 mm
05:02 PM 30.4°F-0.9°C 17.0°F-8.3°C 57% 5.0 mph NW8.0 kmh NW 10.0 mph16.1 kmh 30.15 in1021.0 mb 0.00 in0.0 mm 0.00 in/hr0.0 mm/hr 0.16 in4.1 mm
05:15 PM 30.3°F-0.9°C 16.9°F-8.4°C 57% 13.0 mph WNW20.9 kmh WNW 13.0 mph20.9 kmh 30.15 in1021.0 mb 0.00 in0.0 mm 0.00 in/hr0.0 mm/hr 0.16 in4.1 mm
05:31 PM 30.1°F-1.1°C 17.1°F-8.3°C 58% 5.0 mph NW8.0 kmh NW 14.0 mph22.5 kmh 30.16 in1021.3 mb 0.00 in0.0 mm 0.00 in/hr0.0 mm/hr 0.16 in4.1 mm
05:47 PM 30.0°F-1.1°C 17.8°F-7.9°C 60% 6.0 mph WSW9.7 kmh WSW 12.0 mph19.3 kmh 30.16 in1021.3 mb 0.00 in0.0 mm 0.00 in/hr0.0 mm/hr 0.16 in4.1 mm
06:03 PM 29.8°F-1.2°C 18.4°F-7.6°C 62% 3.0 mph WNW4.8 kmh WNW 9.0 mph14.5 kmh 30.17 in1021.7 mb 0.00 in0.0 mm 0.00 in/hr0.0 mm/hr 0.16 in4.1 mm
06:15 PM 29.6°F-1.3°C 17.1°F-8.3°C 59% 4.0 mph WNW6.4 kmh WNW 15.0 mph24.1 kmh 30.17 in1021.7 mb 0.00 in0.0 mm 0.00 in/hr0.0 mm/hr 0.16 in4.1 mm
06:31 PM 29.0°F-1.7°C 16.9°F-8.4°C 60% 6.0 mph WNW9.7 kmh WNW 8.0 mph12.9 kmh 30.18 in1022.0 mb 0.00 in0.0 mm 0.00 in/hr0.0 mm/hr 0.16 in4.1 mm
06:45 PM 29.0°F-1.7°C 17.6°F-8.0°C 62% 4.0 mph W6.4 kmh W 6.0 mph9.7 kmh 30.19 in1022.4 mb 0.00 in0.0 mm 0.00 in/hr0.0 mm/hr 0.16 in4.1 mm
07:02 PM 28.8°F-1.8°C 18.5°F-7.5°C 65% 6.0 mph NW9.7 kmh NW 12.0 mph19.3 kmh 30.20 in1022.7 mb 0.00 in0.0 mm 0.00 in/hr0.0 mm/hr 0.16 in4.1 mm
07:16 PM 28.2°F-2.1°C 18.3°F-7.6°C 66% 6.0 mph NW9.7 kmh NW 10.0 mph16.1 kmh 30.21 in1023.0 mb 0.00 in0.0 mm 0.00 in/hr0.0 mm/hr 0.16 in4.1 mm
07:31 PM 27.8°F-2.3°C 17.2°F-8.2°C 64% 6.0 mph NW9.7 kmh NW 9.0 mph14.5 kmh 30.22 in1023.4 mb 0.00 in0.0 mm 0.00 in/hr0.0 mm/hr 0.16 in4.1 mm
07:46 PM 27.7°F-2.4°C 17.8°F-7.9°C 66% 4.0 mph NW6.4 kmh NW 7.0 mph11.3 kmh 30.23 in1023.7 mb 0.00 in0.0 mm 0.00 in/hr0.0 mm/hr 0.16 in4.1 mm
08:03 PM 27.4°F-2.6°C 17.2°F-8.2°C 65% 2.0 mph WNW3.2 kmh WNW 6.0 mph9.7 kmh 30.24 in1024.0 mb 0.00 in0.0 mm 0.00 in/hr0.0 mm/hr 0.16 in4.1 mm
08:16 PM 27.2°F-2.7°C 16.7°F-8.5°C 64% 5.0 mph NNW8.0 kmh NNW 10.0 mph16.1 kmh 30.24 in1024.0 mb 0.00 in0.0 mm 0.00 in/hr0.0 mm/hr 0.16 in4.1 mm
08:31 PM 26.9°F-2.8°C 16.7°F-8.5°C 65% 3.0 mph WNW4.8 kmh WNW 6.0 mph9.7 kmh 30.25 in1024.4 mb 0.00 in0.0 mm 0.00 in/hr0.0 mm/hr 0.16 in4.1 mm
08:46 PM 26.4°F-3.1°C 16.6°F-8.6°C 66% 2.0 mph NW3.2 kmh NW 6.0 mph9.7 kmh 30.26 in1024.7 mb 0.00 in0.0 mm 0.00 in/hr0.0 mm/hr 0.16 in4.1 mm
09:03 PM 26.1°F-3.3°C 16.7°F-8.5°C 67% 4.0 mph NW6.4 kmh NW 6.0 mph9.7 kmh 30.26 in1024.7 mb 0.00 in0.0 mm 0.00 in/hr0.0 mm/hr 0.16 in4.1 mm
09:16 PM 25.8°F-3.4°C 16.4°F-8.7°C 67% 4.0 mph W6.4 kmh W 8.0 mph12.9 kmh 30.26 in1024.7 mb 0.00 in0.0 mm 0.00 in/hr0.0 mm/hr 0.16 in4.1 mm
09:31 PM 25.4°F-3.7°C 16.3°F-8.7°C 68% 5.0 mph W8.0 kmh W 6.0 mph9.7 kmh 30.27 in1025.1 mb 0.00 in0.0 mm 0.00 in/hr0.0 mm/hr 0.16 in4.1 mm
09:47 PM 25.0°F-3.9°C 16.0°F-8.9°C 68% 3.0 mph NNW4.8 kmh NNW 6.0 mph9.7 kmh 30.27 in1025.1 mb 0.00 in0.0 mm 0.00 in/hr0.0 mm/hr 0.16 in4.1 mm
10:02 PM 24.4°F-4.2°C 15.7°F-9.1°C 69% 2.0 mph NW3.2 kmh NW 5.0 mph8.0 kmh 30.27 in1025.1 mb 0.00 in0.0 mm 0.00 in/hr0.0 mm/hr 0.16 in4.1 mm
10:16 PM 24.1°F-4.4°C 15.8°F-9.0°C 70% 4.0 mph NW6.4 kmh NW 5.0 mph8.0 kmh 30.28 in1025.4 mb 0.00 in0.0 mm 0.00 in/hr0.0 mm/hr 0.16 in4.1 mm
10:30 PM 24.0°F-4.4°C 16.0°F-8.9°C 71% 3.0 mph NW4.8 kmh NW 5.0 mph8.0 kmh 30.28 in1025.4 mb 0.00 in0.0 mm 0.00 in/hr0.0 mm/hr 0.16 in4.1 mm
10:46 PM 24.2°F-4.3°C 16.2°F-8.8°C 71% 2.0 mph NW3.2 kmh NW 7.0 mph11.3 kmh 30.28 in1025.4 mb 0.00 in0.0 mm 0.00 in/hr0.0 mm/hr 0.16 in4.1 mm
11:00 PM 24.3°F-4.3°C 16.3°F-8.7°C 71% 2.0 mph NW3.2 kmh NW 6.0 mph9.7 kmh 30.29 in1025.7 mb 0.00 in0.0 mm 0.00 in/hr0.0 mm/hr 0.16 in4.1 mm
11:15 PM 24.2°F-4.3°C 16.5°F-8.6°C 72% 3.0 mph WNW4.8 kmh WNW 3.0 mph4.8 kmh 30.28 in1025.4 mb 0.00 in0.0 mm 0.00 in/hr0.0 mm/hr 0.16 in4.1 mm
11:30 PM 24.4°F-4.2°C 17.0°F-8.3°C 73% 1.0 mph WNW1.6 kmh WNW 2.0 mph3.2 kmh 30.29 in1025.7 mb 0.00 in0.0 mm 0.00 in/hr0.0 mm/hr 0.16 in4.1 mm
11:46 PM 24.3°F-4.3°C 16.6°F-8.6°C 72% 1.0 mph NW1.6 kmh NW 6.0 mph9.7 kmh 30.28 in1025.4 mb 0.00 in0.0 mm 0.00 in/hr0.0 mm/hr 0.16 in4.1 mm